Time;durP1;ratioP1;P1;durP2;ratioP2;P2;SDS_P1;SDS_P2;PMS_P1;PMS_P2;Temp;Humidity;BMP_temperature;BMP_pressure;BME280_temperature;BME280_humidity;BME280_pressure;Samples;Min_cycle;Max_cycle;Signal;HPM_P1;HPM_P2
2023/10/06 00:00:40;;;;;;;;;;;;;;;;;;5092914;28;19912;-58
2023/10/06 00:03:06;;;;;;;;;;;;;;;;;;5094536;28;19920;-58
2023/10/06 00:05:31;;;;;;;;;;;;;;;;;;5094045;28;19908;-59
2023/10/06 00:07:57;;;;;;;;;;;;;;;;;;5092846;28;19961;-59
2023/10/06 00:10:27;;;;;;;;;;;;;;;;;;5092766;28;20436;-59
2023/10/06 00:12:54;;;;;;;;;;;;;;;;;;5094314;28;19912;-57
2023/10/06 00:15:28;;;;;;;;;;;;;;;;;;5093870;28;19935;-58
2023/10/06 00:18:00;;;;;;;;;;;;;;;;;;5094263;28;19939;-58
2023/10/06 00:20:48;;;;;;;;;;;;;;;;;;5092542;28;20297;-58
2023/10/06 00:23:14;;;;;;;;;;;;;;;;;;5093794;28;20288;-57
2023/10/06 00:25:42;;;;;;;;;;;;;;;;;;5092743;28;20304;-60
2023/10/06 00:28:14;;;;;;;;;;;;;;;;;;5094937;28;19915;-59
2023/10/06 00:30:39;;;;;;;;;;;;;;;;;;5114120;28;19918;-58
2023/10/06 00:33:05;;;;;;;;;;;;;;;;;;5095824;28;19920;-59
2023/10/06 00:35:30;;;;;;;;;;;;;;;;;;5112601;28;19981;-59
2023/10/06 00:38:00;;;;;;;;;;;;;;;;;;5112747;28;19916;-58
2023/10/06 00:40:25;;;;;;;;;;;;;;;;;;5078609;28;20032;-59
2023/10/06 00:42:51;;;;;;;;;;;;;;;;;;5112644;28;19933;-58
2023/10/06 00:45:17;;;;;;;;;;;;;;;;;;5113763;28;19911;-59
2023/10/06 00:47:42;;;;;;;;;;;;;;;;;;5113940;28;19960;-59
2023/10/06 00:50:07;;;;;;;;;;;;;;;;;;5111954;28;19920;-58
2023/10/06 00:52:34;;;;;;;;;;;;;;;;;;5113311;28;19915;-58
2023/10/06 00:55:02;;;;;;;;;;;;;;;;;;5113022;28;19923;-57
2023/10/06 00:57:28;;;;;;;;;;;;;;;;;;5112367;28;19950;-59
2023/10/06 00:59:55;;;;;;;;;;;;;;;;;;5113373;28;19955;-58
2023/10/06 01:02:21;;;;;;;;;;;;;;;;;;5112014;28;19933;-56
2023/10/06 01:04:52;;;;;;;;;;;;;;;;;;5111595;28;19912;-59
2023/10/06 01:07:17;;;;;;;;;;;;;;;;;;5094692;28;20015;-57
2023/10/06 01:09:43;;;;;;;;;;;;;;;;;;5113303;28;20385;-58
2023/10/06 01:12:13;;;;;;;;;;;;;;;;;;5112034;28;19911;-58
2023/10/06 01:14:40;;;;;;;;;;;;;;;;;;5113055;28;19926;-58
2023/10/06 01:17:17;;;;;;;;;;;;;;;;;;5112353;28;19920;-58
2023/10/06 01:19:49;;;;;;;;;;;;;;;;;;5111737;28;19911;-57
2023/10/06 01:22:30;;;;;;;;;;;;;;;;;;5113239;28;20300;-59
2023/10/06 01:24:58;;;;;;;;;;;;;;;;;;5111880;28;19923;-59
2023/10/06 01:27:26;;;;;;;;;;;;;;;;;;5094439;28;20012;-58
2023/10/06 01:30:07;;;;;;;;;;;;;;;;;;5111362;28;19912;-57
2023/10/06 01:32:33;;;;;;;;;;;;;;;;;;5094422;28;19915;-58
2023/10/06 01:34:58;;;;;;;;;;;;;;;;;;5112728;28;19919;-58
2023/10/06 01:37:23;;;;;;;;;;;;;;;;;;5112894;28;19927;-58
2023/10/06 01:39:51;;;;;;;;;;;;;;;;;;5112970;28;19956;-58
2023/10/06 01:42:17;;;;;;;;;;;;;;;;;;5112821;28;19912;-58
2023/10/06 01:44:43;;;;;;;;;;;;;;;;;;5111419;28;19915;-58
2023/10/06 01:47:08;;;;;;;;;;;;;;;;;;5112940;28;19976;-58
2023/10/06 01:49:34;;;;;;;;;;;;;;;;;;5111190;28;20436;-57
2023/10/06 01:51:59;;;;;;;;;;;;;;;;;;5111480;28;19924;-58
2023/10/06 01:54:31;;;;;;;;;;;;;;;;;;5109852;28;19984;-58
2023/10/06 01:57:00;;;;;;;;;;;;;;;;;;5111283;28;19915;-57
2023/10/06 01:59:26;;;;;;;;;;;;;;;;;;5110926;28;19920;-58
2023/10/06 02:01:51;;;;;;;;;;;;;;;;;;5094205;28;19968;-57
2023/10/06 02:04:19;;;;;;;;;;;;;;;;;;5112497;28;20005;-57
2023/10/06 02:06:44;;;;;;;;;;;;;;;;;;5111064;28;19915;-57
2023/10/06 02:09:15;;;;;;;;;;;;;;;;;;5111009;28;20008;-59
2023/10/06 02:11:41;;;;;;;;;;;;;;;;;;5112349;28;20510;-58
2023/10/06 02:14:06;;;;;;;;;;;;;;;;;;5110941;28;19919;-58
2023/10/06 02:16:32;;;;;;;;;;;;;;;;;;5111254;28;20316;-59
2023/10/06 02:18:57;;;;;;;;;;;;;;;;;;5111022;28;20402;-58
2023/10/06 02:21:28;;;;;;;;;;;;;;;;;;5110823;28;19920;-59
2023/10/06 02:23:59;;;;;;;;;;;;;;;;;;5112070;28;20288;-58
2023/10/06 02:26:24;;;;;;;;;;;;;;;;;;5112165;28;19969;-59
2023/10/06 02:28:50;;;;;;;;;;;;;;;;;;5111947;28;19916;-59
2023/10/06 02:31:15;;;;;;;;;;;;;;;;;;5111812;28;20018;-58
2023/10/06 02:33:41;;;;;;;;;;;;;;;;;;5093773;28;19918;-59
2023/10/06 02:36:17;;;;;;;;;;;;;;;;;;5111921;28;20308;-57
2023/10/06 02:38:46;;;;;;;;;;;;;;;;;;5110816;28;20376;-59
2023/10/06 02:41:12;;;;;;;;;;;;;;;;;;5103239;28;19912;-58
2023/10/06 02:43:40;;;;;;;;;;;;;;;;;;5073423;28;19918;-59
2023/10/06 02:46:07;;;;;;;;;;;;;;;;;;5091465;28;19915;-58
2023/10/06 02:48:33;;;;;;;;;;;;;;;;;;5091487;28;19912;-58
2023/10/06 02:51:01;;;;;;;;;;;;;;;;;;5090121;28;19920;-57
2023/10/06 02:53:29;;;;;;;;;;;;;;;;;;5090417;28;19923;-59
2023/10/06 02:56:05;;;;;;;;;;;;;;;;;;5091740;28;19923;-57
2023/10/06 02:58:31;;;;;;;;;;;;;;;;;;5090169;28;19923;-57
2023/10/06 03:00:57;;;;;;;;;;;;;;;;;;5090228;28;19912;-58
2023/10/06 03:03:26;;;;;;;;;;;;;;;;;;5091300;28;19962;-59
2023/10/06 03:05:53;;;;;;;;;;;;;;;;;;5090227;28;19915;-57
2023/10/06 03:08:21;;;;;;;;;;;;;;;;;;5089373;28;19998;-59
2023/10/06 03:10:48;;;;;;;;;;;;;;;;;;5090083;28;19919;-59
2023/10/06 03:13:13;;;;;;;;;;;;;;;;;;5073529;28;19916;-58
2023/10/06 03:15:46;;;;;;;;;;;;;;;;;;5073630;28;20391;-57
2023/10/06 03:18:13;;;;;;;;;;;;;;;;;;5090464;28;19916;-59
2023/10/06 03:20:46;;;;;;;;;;;;;;;;;;5093958;28;20273;-57
2023/10/06 03:25:57;;;;;;;;;;;;;;;;;;5093426;28;19912;-57
2023/10/06 03:28:32;;;;;;;;;;;;;;;;;;5079949;28;19951;-58
2023/10/06 03:31:21;;;;;;;;;;;;;;;;;;5097276;28;19919;-58
2023/10/06 03:33:46;;;;;;;;;;;;;;;;;;5113867;28;19920;-58
2023/10/06 03:36:26;;;;;;;;;;;;;;;;;;5113726;28;20005;-57
2023/10/06 03:38:56;;;;;;;;;;;;;;;;;;5113838;28;19964;-58
2023/10/06 03:41:31;;;;;;;;;;;;;;;;;;5113670;28;19911;-58
2023/10/06 03:44:03;;;;;;;;;;;;;;;;;;5095829;28;20010;-59
2023/10/06 03:46:36;;;;;;;;;;;;;;;;;;5113404;28;19916;-58
2023/10/06 03:49:03;;;;;;;;;;;;;;;;;;5113588;28;19956;-59
2023/10/06 03:51:29;;;;;;;;;;;;;;;;;;5113247;28;19924;-58
2023/10/06 03:53:56;;;;;;;;;;;;;;;;;;5113389;28;20402;-58
2023/10/06 03:56:21;;;;;;;;;;;;;;;;;;5113235;28;20301;-59
2023/10/06 03:58:47;;;;;;;;;;;;;;;;;;5114705;28;19922;-58
2023/10/06 04:01:17;;;;;;;;;;;;;;;;;;5114423;28;20010;-59
2023/10/06 04:03:43;;;;;;;;;;;;;;;;;;5114836;28;19911;-58
2023/10/06 04:06:12;;;;;;;;;;;;;;;;;;5113165;28;19915;-58
2023/10/06 04:08:38;;;;;;;;;;;;;;;;;;5114914;28;19911;-58
2023/10/06 04:11:04;;;;;;;;;;;;;;;;;;5114417;28;20357;-59
2023/10/06 04:13:31;;;;;;;;;;;;;;;;;;5114560;28;20340;-59
2023/10/06 04:15:57;;;;;;;;;;;;;;;;;;5112979;28;20023;-60
2023/10/06 04:18:23;;;;;;;;;;;;;;;;;;5112762;28;19950;-59
2023/10/06 04:20:48;;;;;;;;;;;;;;;;;;5114216;28;19999;-59
2023/10/06 04:23:17;;;;;;;;;;;;;;;;;;5095276;28;19912;-58
2023/10/06 04:25:42;;;;;;;;;;;;;;;;;;5113227;28;19912;-58
2023/10/06 04:28:08;;;;;;;;;;;;;;;;;;5114204;28;20457;-59
2023/10/06 04:30:34;;;;;;;;;;;;;;;;;;5111625;28;20292;-59
2023/10/06 04:32:59;;;;;;;;;;;;;;;;;;5112321;28;20011;-59
2023/10/06 04:35:25;;;;;;;;;;;;;;;;;;5113214;28;19945;-61
2023/10/06 04:37:51;;;;;;;;;;;;;;;;;;5093653;28;20386;-61
2023/10/06 04:40:21;;;;;;;;;;;;;;;;;;5093267;28;19912;-60
2023/10/06 04:42:46;;;;;;;;;;;;;;;;;;5092975;28;19969;-60
2023/10/06 04:45:15;;;;;;;;;;;;;;;;;;5093218;28;20300;-60
2023/10/06 04:47:40;;;;;;;;;;;;;;;;;;5092136;28;19912;-59
2023/10/06 04:50:09;;;;;;;;;;;;;;;;;;5091597;28;19943;-61
2023/10/06 04:52:34;;;;;;;;;;;;;;;;;;5091863;28;19933;-60
2023/10/06 04:55:02;;;;;;;;;;;;;;;;;;5093115;28;20309;-60
2023/10/06 04:57:29;;;;;;;;;;;;;;;;;;5093314;28;19916;-59
2023/10/06 04:59:54;;;;;;;;;;;;;;;;;;5093327;28;20322;-58
2023/10/06 05:02:22;;;;;;;;;;;;;;;;;;5093150;28;20388;-58
2023/10/06 05:04:47;;;;;;;;;;;;;;;;;;5092971;28;19908;-59
2023/10/06 05:07:12;;;;;;;;;;;;;;;;;;5091553;28;19916;-59
2023/10/06 05:09:40;;;;;;;;;;;;;;;;;;5093176;28;20368;-59
2023/10/06 05:12:05;;;;;;;;;;;;;;;;;;5091537;28;19920;-60
2023/10/06 05:14:30;;;;;;;;;;;;;;;;;;5091016;28;19992;-60
2023/10/06 05:16:57;;;;;;;;;;;;;;;;;;5092734;28;20430;-65
2023/10/06 05:19:22;;;;;;;;;;;;;;;;;;5092610;28;19923;-60
2023/10/06 05:21:50;;;;;;;;;;;;;;;;;;5091300;28;19939;-61
2023/10/06 05:24:17;;;;;;;;;;;;;;;;;;5092869;28;19916;-60
2023/10/06 05:26:43;;;;;;;;;;;;;;;;;;5092665;28;19923;-61
2023/10/06 05:29:09;;;;;;;;;;;;;;;;;;5099618;28;20292;-59
2023/10/06 05:31:34;;;;;;;;;;;;;;;;;;5085094;28;19923;-57
2023/10/06 05:34:00;;;;;;;;;;;;;;;;;;5070751;28;20512;-59
2023/10/06 05:36:26;;;;;;;;;;;;;;;;;;5072100;28;20061;-58
2023/10/06 05:38:51;;;;;;;;;;;;;;;;;;5075197;28;19911;-58
2023/10/06 05:41:16;;;;;;;;;;;;;;;;;;5085566;28;20233;-57
2023/10/06 05:43:43;;;;;;;;;;;;;;;;;;5083547;28;19912;-60
2023/10/06 05:46:09;;;;;;;;;;;;;;;;;;5077688;28;19951;-59
2023/10/06 05:48:36;;;;;;;;;;;;;;;;;;5081683;28;19919;-59
2023/10/06 05:51:14;;;;;;;;;;;;;;;;;;5092357;28;19920;-59
2023/10/06 05:53:41;;;;;;;;;;;;;;;;;;5092178;28;19916;-58
2023/10/06 05:56:09;;;;;;;;;;;;;;;;;;5091032;28;19939;-59
2023/10/06 05:58:37;;;;;;;;;;;;;;;;;;5091859;28;19912;-59
2023/10/06 06:01:21;;;;;;;;;;;;;;;;;;5092041;28;19915;-60
2023/10/06 06:03:46;;;;;;;;;;;;;;;;;;5091750;28;20416;-58
2023/10/06 06:06:14;;;;;;;;;;;;;;;;;;5090566;28;20003;-59
2023/10/06 06:08:40;;;;;;;;;;;;;;;;;;5090588;28;19965;-57
2023/10/06 06:11:06;;;;;;;;;;;;;;;;;;5089964;28;19912;-58
2023/10/06 06:13:33;;;;;;;;;;;;;;;;;;5091443;28;19912;-59
2023/10/06 06:15:59;;;;;;;;;;;;;;;;;;5091584;28;19919;-59
2023/10/06 06:18:27;;;;;;;;;;;;;;;;;;5088366;28;19962;-60
2023/10/06 06:20:53;;;;;;;;;;;;;;;;;;5081134;28;19920;-58
2023/10/06 06:23:20;;;;;;;;;;;;;;;;;;5079246;28;19916;-60
2023/10/06 06:25:45;;;;;;;;;;;;;;;;;;5078460;28;19912;-60
2023/10/06 06:28:12;;;;;;;;;;;;;;;;;;5081744;28;19916;-60
2023/10/06 06:30:37;;;;;;;;;;;;;;;;;;5091294;28;19965;-61
2023/10/06 06:33:04;;;;;;;;;;;;;;;;;;5085254;28;19916;-56
2023/10/06 06:35:29;;;;;;;;;;;;;;;;;;5075572;28;20286;-59
2023/10/06 06:38:01;;;;;;;;;;;;;;;;;;5077329;28;19920;-55
2023/10/06 06:40:28;;;;;;;;;;;;;;;;;;5079590;28;19912;-58
2023/10/06 06:42:55;;;;;;;;;;;;;;;;;;5078506;28;19915;-57
2023/10/06 06:45:20;;;;;;;;;;;;;;;;;;5070763;28;19919;-58
2023/10/06 06:47:45;;;;;;;;;;;;;;;;;;5071273;28;19916;-57
2023/10/06 06:50:13;;;;;;;;;;;;;;;;;;5070711;28;20274;-59
2023/10/06 06:52:39;;;;;;;;;;;;;;;;;;5071336;28;19922;-57
2023/10/06 06:55:12;;;;;;;;;;;;;;;;;;5073598;28;19920;-57
2023/10/06 06:57:37;;;;;;;;;;;;;;;;;;5093492;28;19920;-57
2023/10/06 07:00:09;;;;;;;;;;;;;;;;;;5078439;28;19919;-57
2023/10/06 07:02:34;;;;;;;;;;;;;;;;;;5076965;28;19916;-58
2023/10/06 07:04:59;;;;;;;;;;;;;;;;;;5074599;28;20090;-59
2023/10/06 07:07:25;;;;;;;;;;;;;;;;;;5078636;28;20339;-58
2023/10/06 07:09:51;;;;;;;;;;;;;;;;;;5082236;28;19912;-58
2023/10/06 07:12:18;;;;;;;;;;;;;;;;;;5095125;28;19920;-58
2023/10/06 07:14:43;;;;;;;;;;;;;;;;;;5094751;28;20344;-57
2023/10/06 07:17:09;;;;;;;;;;;;;;;;;;5087773;28;19923;-58
2023/10/06 07:19:34;;;;;;;;;;;;;;;;;;5077091;28;19919;-57
2023/10/06 07:22:00;;;;;;;;;;;;;;;;;;5074441;28;20018;-58
2023/10/06 07:24:26;;;;;;;;;;;;;;;;;;5074060;28;20393;-57
2023/10/06 07:26:52;;;;;;;;;;;;;;;;;;5073962;28;19916;-55
2023/10/06 07:29:18;;;;;;;;;;;;;;;;;;5085018;28;19919;-59
2023/10/06 07:31:43;;;;;;;;;;;;;;;;;;5094510;28;19920;-58
2023/10/06 07:34:08;;;;;;;;;;;;;;;;;;5094098;28;20359;-57
2023/10/06 07:36:37;;;;;;;;;;;;;;;;;;5076253;28;19927;-58
2023/10/06 07:39:03;;;;;;;;;;;;;;;;;;5072418;28;19912;-60
2023/10/06 07:41:29;;;;;;;;;;;;;;;;;;5092268;28;19951;-58
2023/10/06 07:43:56;;;;;;;;;;;;;;;;;;5084722;28;19959;-58
2023/10/06 07:46:21;;;;;;;;;;;;;;;;;;5074148;28;20294;-58
2023/10/06 07:48:46;;;;;;;;;;;;;;;;;;5073798;28;19919;-60
2023/10/06 07:51:16;;;;;;;;;;;;;;;;;;5073799;28;19921;-60
2023/10/06 07:53:43;;;;;;;;;;;;;;;;;;5088478;28;19954;-59
2023/10/06 07:56:08;;;;;;;;;;;;;;;;;;5093934;28;19959;-59
2023/10/06 07:58:33;;;;;;;;;;;;;;;;;;5094147;28;19970;-61
2023/10/06 08:01:02;;;;;;;;;;;;;;;;;;5074447;28;20370;-58
2023/10/06 08:03:27;;;;;;;;;;;;;;;;;;5074012;28;20266;-56
2023/10/06 08:05:53;;;;;;;;;;;;;;;;;;5055437;28;19966;-60
2023/10/06 08:08:18;;;;;;;;;;;;;;;;;;5073948;28;19962;-58
2023/10/06 08:10:43;;;;;;;;;;;;;;;;;;5073406;28;19913;-60
2023/10/06 08:13:10;;;;;;;;;;;;;;;;;;5091745;28;19916;-59
2023/10/06 08:15:40;;;;;;;;;;;;;;;;;;5091360;28;19924;-60
2023/10/06 08:18:06;;;;;;;;;;;;;;;;;;5072493;28;19927;-59
2023/10/06 08:20:32;;;;;;;;;;;;;;;;;;5096301;28;19912;-62
2023/10/06 08:22:57;;;;;;;;;;;;;;;;;;5085563;28;19916;-60
2023/10/06 08:25:24;;;;;;;;;;;;;;;;;;5075882;28;20293;-59
2023/10/06 08:27:50;;;;;;;;;;;;;;;;;;5087534;28;20018;-58
2023/10/06 08:30:21;;;;;;;;;;;;;;;;;;5085757;28;19991;-61
2023/10/06 08:32:46;;;;;;;;;;;;;;;;;;5089489;28;20312;-61
2023/10/06 08:35:15;;;;;;;;;;;;;;;;;;5073991;28;19927;-60
2023/10/06 08:37:40;;;;;;;;;;;;;;;;;;5073056;28;20423;-60
2023/10/06 08:40:07;;;;;;;;;;;;;;;;;;5072961;28;20313;-61
2023/10/06 08:42:32;;;;;;;;;;;;;;;;;;5072898;28;19923;-60
2023/10/06 08:44:57;;;;;;;;;;;;;;;;;;5072699;28;19912;-60
2023/10/06 08:47:23;;;;;;;;;;;;;;;;;;5088202;28;20483;-61
2023/10/06 08:49:48;;;;;;;;;;;;;;;;;;5073631;28;19966;-60
2023/10/06 08:52:14;;;;;;;;;;;;;;;;;;5075170;28;19916;-58
2023/10/06 08:54:40;;;;;;;;;;;;;;;;;;5081220;28;20031;-61
2023/10/06 08:57:05;;;;;;;;;;;;;;;;;;5077094;28;20300;-59
2023/10/06 08:59:32;;;;;;;;;;;;;;;;;;5072589;28;19919;-60
2023/10/06 09:01:58;;;;;;;;;;;;;;;;;;5072476;28;19951;-61
2023/10/06 09:04:23;;;;;;;;;;;;;;;;;;5087479;28;19962;-60
2023/10/06 09:06:48;;;;;;;;;;;;;;;;;;5090967;28;20141;-61
2023/10/06 09:09:14;;;;;;;;;;;;;;;;;;5086282;28;19912;-61
2023/10/06 09:11:39;;;;;;;;;;;;;;;;;;5082905;28;19916;-60
2023/10/06 09:14:05;;;;;;;;;;;;;;;;;;5081735;28;19919;-59
2023/10/06 09:16:30;;;;;;;;;;;;;;;;;;5080612;28;20289;-60
2023/10/06 09:18:56;;;;;;;;;;;;;;;;;;5081443;28;19922;-58
2023/10/06 09:21:21;;;;;;;;;;;;;;;;;;5085788;28;19908;-59
2023/10/06 09:23:46;;;;;;;;;;;;;;;;;;5074230;28;19911;-60
2023/10/06 09:26:12;;;;;;;;;;;;;;;;;;5083252;28;19916;-59
2023/10/06 09:28:37;;;;;;;;;;;;;;;;;;5065418;28;19966;-60
2023/10/06 09:31:06;;;;;;;;;;;;;;;;;;5081837;28;19912;-59
2023/10/06 09:33:31;;;;;;;;;;;;;;;;;;5064257;28;19917;-61
2023/10/06 09:35:57;;;;;;;;;;;;;;;;;;5080603;28;20408;-61
2023/10/06 09:38:22;;;;;;;;;;;;;;;;;;5088552;28;20357;-61
2023/10/06 09:40:48;;;;;;;;;;;;;;;;;;5087058;28;19912;-61
2023/10/06 09:43:15;;;;;;;;;;;;;;;;;;5085593;28;20377;-61
2023/10/06 09:45:40;;;;;;;;;;;;;;;;;;5103247;28;19923;-58
2023/10/06 09:48:08;;;;;;;;;;;;;;;;;;5081194;28;20317;-59
2023/10/06 09:50:34;;;;;;;;;;;;;;;;;;5080537;28;19920;-60
2023/10/06 09:52:59;;;;;;;;;;;;;;;;;;5082344;28;19916;-62
2023/10/06 09:55:25;;;;;;;;;;;;;;;;;;5089239;28;20014;-60
2023/10/06 09:57:50;;;;;;;;;;;;;;;;;;5091611;28;20026;-59
2023/10/06 10:00:16;;;;;;;;;;;;;;;;;;5092074;28;20013;-60
2023/10/06 10:02:44;;;;;;;;;;;;;;;;;;5091709;28;19923;-62
2023/10/06 10:05:10;;;;;;;;;;;;;;;;;;5088739;28;20003;-60
2023/10/06 10:07:36;;;;;;;;;;;;;;;;;;5078582;28;19920;-61
2023/10/06 10:10:05;;;;;;;;;;;;;;;;;;5081248;28;19920;-60
2023/10/06 10:12:31;;;;;;;;;;;;;;;;;;5075385;28;19917;-59
2023/10/06 10:14:56;;;;;;;;;;;;;;;;;;5036798;28;20308;-58
2023/10/06 10:17:23;;;;;;;;;;;;;;;;;;5070952;28;19917;-59
2023/10/06 10:19:48;;;;;;;;;;;;;;;;;;5075853;28;19912;-58
2023/10/06 10:22:16;;;;;;;;;;;;;;;;;;5085329;28;19912;-59
2023/10/06 10:24:42;;;;;;;;;;;;;;;;;;5052138;28;20007;-60
2023/10/06 10:27:08;;;;;;;;;;;;;;;;;;5069587;28;20417;-59
2023/10/06 10:29:33;;;;;;;;;;;;;;;;;;5074049;28;19919;-60
2023/10/06 10:32:01;;;;;;;;;;;;;;;;;;5074423;28;19916;-60
2023/10/06 10:34:26;;;;;;;;;;;;;;;;;;5075453;28;19916;-59
2023/10/06 10:36:51;;;;;;;;;;;;;;;;;;5074862;28;19939;-57
2023/10/06 10:39:17;;;;;;;;;;;;;;;;;;5075436;28;20305;-57
2023/10/06 10:41:42;;;;;;;;;;;;;;;;;;5072546;28;19917;-60
2023/10/06 10:44:08;;;;;;;;;;;;;;;;;;5075196;28;19916;-60
2023/10/06 10:46:33;;;;;;;;;;;;;;;;;;5090950;28;19916;-60
2023/10/06 10:48:58;;;;;;;;;;;;;;;;;;5072542;28;19918;-60
2023/10/06 10:51:24;;;;;;;;;;;;;;;;;;5072525;28;20390;-61
2023/10/06 10:53:49;;;;;;;;;;;;;;;;;;5072279;28;19912;-60
2023/10/06 10:56:15;;;;;;;;;;;;;;;;;;5072694;28;20389;-60
2023/10/06 10:58:45;;;;;;;;;;;;;;;;;;5073270;28;19919;-60
2023/10/06 11:01:12;;;;;;;;;;;;;;;;;;5073780;28;19912;-60
2023/10/06 11:03:37;;;;;;;;;;;;;;;;;;5074346;28;19912;-61
2023/10/06 11:06:03;;;;;;;;;;;;;;;;;;5074590;28;19919;-59
2023/10/06 11:08:29;;;;;;;;;;;;;;;;;;5074194;28;19916;-60
2023/10/06 11:10:54;;;;;;;;;;;;;;;;;;5074520;28;19953;-59
2023/10/06 11:13:19;;;;;;;;;;;;;;;;;;5073107;28;19923;-61
2023/10/06 11:15:45;;;;;;;;;;;;;;;;;;5074221;28;19943;-58
2023/10/06 11:18:13;;;;;;;;;;;;;;;;;;5039771;28;20011;-58
2023/10/06 11:20:39;;;;;;;;;;;;;;;;;;5100254;28;19911;-58
2023/10/06 11:23:04;;;;;;;;;;;;;;;;;;5088606;28;19935;-59
2023/10/06 11:25:32;;;;;;;;;;;;;;;;;;5074217;28;20381;-60
2023/10/06 11:27:58;;;;;;;;;;;;;;;;;;5074052;28;19916;-60
2023/10/06 11:30:23;;;;;;;;;;;;;;;;;;5075198;28;20007;-58
2023/10/06 11:32:48;;;;;;;;;;;;;;;;;;5080789;28;19923;-60
2023/10/06 11:35:14;;;;;;;;;;;;;;;;;;5081349;28;20348;-58
2023/10/06 11:37:40;;;;;;;;;;;;;;;;;;5084004;28;19961;-58
2023/10/06 11:40:06;;;;;;;;;;;;;;;;;;5083989;28;19916;-59
2023/10/06 11:42:37;;;;;;;;;;;;;;;;;;5079503;28;19916;-60
2023/10/06 11:45:06;;;;;;;;;;;;;;;;;;5084535;28;19912;-58
2023/10/06 11:47:31;;;;;;;;;;;;;;;;;;5079924;28;19951;-61
2023/10/06 11:49:57;;;;;;;;;;;;;;;;;;5083380;28;20376;-62
2023/10/06 11:52:22;;;;;;;;;;;;;;;;;;5083953;28;19916;-59
2023/10/06 11:54:47;;;;;;;;;;;;;;;;;;5082360;28;19920;-60
2023/10/06 11:57:16;;;;;;;;;;;;;;;;;;5090870;28;20288;-60
2023/10/06 11:59:41;;;;;;;;;;;;;;;;;;5093946;28;19912;-59
2023/10/06 12:02:10;;;;;;;;;;;;;;;;;;5092429;28;19939;-59
2023/10/06 12:04:36;;;;;;;;;;;;;;;;;;5086669;28;19908;-59
2023/10/06 12:07:02;;;;;;;;;;;;;;;;;;5088183;28;19959;-58
2023/10/06 12:09:30;;;;;;;;;;;;;;;;;;5088041;28;19926;-61
2023/10/06 12:11:57;;;;;;;;;;;;;;;;;;5082872;28;19943;-61
2023/10/06 12:14:23;;;;;;;;;;;;;;;;;;5082226;28;20069;-59
2023/10/06 12:16:48;;;;;;;;;;;;;;;;;;5082534;28;19968;-59
2023/10/06 12:19:14;;;;;;;;;;;;;;;;;;5080898;28;19913;-58
2023/10/06 12:21:39;;;;;;;;;;;;;;;;;;5084066;28;20381;-59
2023/10/06 12:24:05;;;;;;;;;;;;;;;;;;5081932;28;19912;-59
2023/10/06 12:26:30;;;;;;;;;;;;;;;;;;5083701;28;19920;-60
2023/10/06 12:28:58;;;;;;;;;;;;;;;;;;5082881;28;20285;-57
2023/10/06 12:31:24;;;;;;;;;;;;;;;;;;5081754;28;19920;-61
2023/10/06 12:33:49;;;;;;;;;;;;;;;;;;5083472;28;20261;-57
2023/10/06 12:36:18;;;;;;;;;;;;;;;;;;5082393;28;19974;-59
2023/10/06 12:38:44;;;;;;;;;;;;;;;;;;5081332;28;20420;-59
2023/10/06 12:41:12;;;;;;;;;;;;;;;;;;5083377;28;19912;-59
2023/10/06 12:43:37;;;;;;;;;;;;;;;;;;5082517;28;19919;-59
2023/10/06 12:46:03;;;;;;;;;;;;;;;;;;5080143;28;20363;-58
2023/10/06 12:48:30;;;;;;;;;;;;;;;;;;5083204;28;20300;-58
2023/10/06 12:50:55;;;;;;;;;;;;;;;;;;5081173;28;19920;-59
2023/10/06 12:53:22;;;;;;;;;;;;;;;;;;5080878;28;19931;-58
2023/10/06 12:55:56;;;;;;;;;;;;;;;;;;5082964;28;20392;-57
2023/10/06 12:58:22;;;;;;;;;;;;;;;;;;5082899;28;20035;-62
2023/10/06 13:00:47;;;;;;;;;;;;;;;;;;5082983;28;20409;-63
2023/10/06 13:03:15;;;;;;;;;;;;;;;;;;5076982;28;20018;-62
2023/10/06 13:05:41;;;;;;;;;;;;;;;;;;5071206;28;19948;-61
2023/10/06 13:08:09;;;;;;;;;;;;;;;;;;5072075;28;20368;-62
2023/10/06 13:10:35;;;;;;;;;;;;;;;;;;5072570;28;19912;-58
2023/10/06 13:13:06;;;;;;;;;;;;;;;;;;5070648;28;20469;-61
2023/10/06 13:15:31;;;;;;;;;;;;;;;;;;5072189;28;20416;-61
2023/10/06 13:17:56;;;;;;;;;;;;;;;;;;5070425;28;19962;-61
2023/10/06 13:20:22;;;;;;;;;;;;;;;;;;5093612;28;19919;-61
2023/10/06 13:22:50;;;;;;;;;;;;;;;;;;5113103;28;19923;-61
2023/10/06 13:25:17;;;;;;;;;;;;;;;;;;5072823;28;19922;-60
2023/10/06 13:27:50;;;;;;;;;;;;;;;;;;5072086;28;19916;-59
2023/10/06 13:30:16;;;;;;;;;;;;;;;;;;5071433;28;19958;-61
2023/10/06 13:32:42;;;;;;;;;;;;;;;;;;5079955;28;19938;-61
2023/10/06 13:35:11;;;;;;;;;;;;;;;;;;5071919;28;20325;-62
2023/10/06 13:37:37;;;;;;;;;;;;;;;;;;5072194;28;19920;-60
2023/10/06 13:40:02;;;;;;;;;;;;;;;;;;5070146;28;20045;-61
2023/10/06 13:42:28;;;;;;;;;;;;;;;;;;5070546;28;19916;-61
2023/10/06 13:44:53;;;;;;;;;;;;;;;;;;5071504;28;19912;-60
2023/10/06 13:47:20;;;;;;;;;;;;;;;;;;5071773;28;19922;-62
2023/10/06 13:49:47;;;;;;;;;;;;;;;;;;5071278;28;20382;-60
2023/10/06 13:52:12;;;;;;;;;;;;;;;;;;5072351;28;20347;-61
2023/10/06 13:54:38;;;;;;;;;;;;;;;;;;5076929;28;19963;-61
2023/10/06 13:57:06;;;;;;;;;;;;;;;;;;5071674;28;20015;-61
2023/10/06 13:59:31;;;;;;;;;;;;;;;;;;5069854;28;19915;-60
2023/10/06 14:01:57;;;;;;;;;;;;;;;;;;5069840;28;19916;-61
2023/10/06 14:04:23;;;;;;;;;;;;;;;;;;5069518;28;19913;-61
2023/10/06 14:06:49;;;;;;;;;;;;;;;;;;5071547;28;19916;-61
2023/10/06 14:09:21;;;;;;;;;;;;;;;;;;5071040;28;20431;-60
2023/10/06 14:11:46;;;;;;;;;;;;;;;;;;5071182;28;19920;-61
2023/10/06 14:14:54;;;;;;;;;;;;;;;;;;5070698;28;19935;-60
2023/10/06 14:17:32;;;;;;;;;;;;;;;;;;5071274;28;19931;-59
2023/10/06 14:19:57;;;;;;;;;;;;;;;;;;5085024;28;19933;-60
2023/10/06 14:22:24;;;;;;;;;;;;;;;;;;5111548;28;19946;-60
2023/10/06 14:24:52;;;;;;;;;;;;;;;;;;5079315;28;19957;-61
2023/10/06 14:27:18;;;;;;;;;;;;;;;;;;5071282;28;19919;-61
2023/10/06 14:29:44;;;;;;;;;;;;;;;;;;5071194;28;19912;-62
2023/10/06 14:32:27;;;;;;;;;;;;;;;;;;5070031;28;19916;-62
2023/10/06 14:34:58;;;;;;;;;;;;;;;;;;5070919;28;20385;-61
2023/10/06 14:37:40;;;;;;;;;;;;;;;;;;5071410;28;19920;-61
2023/10/06 14:48:17;;;;;;;;;;;;;;;;;;5071284;28;19916;-59
2023/10/06 14:50:42;;;;;;;;;;;;;;;;;;5070926;28;19927;-60
2023/10/06 14:53:10;;;;;;;;;;;;;;;;;;5070878;28;19917;-60
2023/10/06 14:55:35;;;;;;;;;;;;;;;;;;5070872;28;19916;-62
2023/10/06 14:58:00;;;;;;;;;;;;;;;;;;5070945;28;20006;-63
2023/10/06 15:00:26;;;;;;;;;;;;;;;;;;5070889;28;19939;-62
2023/10/06 15:02:52;;;;;;;;;;;;;;;;;;5071236;28;19916;-62
2023/10/06 15:05:18;;;;;;;;;;;;;;;;;;5070765;28;19974;-62
2023/10/06 15:07:43;;;;;;;;;;;;;;;;;;5071116;28;20365;-59
2023/10/06 15:10:15;;;;;;;;;;;;;;;;;;5070652;28;19934;-60
2023/10/06 15:12:42;;;;;;;;;;;;;;;;;;5070807;28;20259;-61
2023/10/06 15:15:15;;;;;;;;;;;;;;;;;;5071046;28;19959;-60
2023/10/06 15:17:43;;;;;;;;;;;;;;;;;;5073525;28;20380;-59
2023/10/06 15:20:12;;;;;;;;;;;;;;;;;;5092000;28;19908;-59
2023/10/06 15:22:40;;;;;;;;;;;;;;;;;;5093341;28;19920;-61
2023/10/06 15:25:05;;;;;;;;;;;;;;;;;;5077070;28;19919;-60
2023/10/06 15:27:31;;;;;;;;;;;;;;;;;;5084803;28;19916;-58
2023/10/06 15:29:58;;;;;;;;;;;;;;;;;;5082725;28;19917;-61
2023/10/06 15:32:26;;;;;;;;;;;;;;;;;;5082661;28;19915;-60
2023/10/06 15:34:51;;;;;;;;;;;;;;;;;;5084815;28;20316;-61
2023/10/06 15:37:17;;;;;;;;;;;;;;;;;;5082806;28;19913;-60
2023/10/06 15:39:42;;;;;;;;;;;;;;;;;;5084117;28;19912;-59
2023/10/06 15:42:09;;;;;;;;;;;;;;;;;;5084284;28;19917;-60
2023/10/06 15:44:35;;;;;;;;;;;;;;;;;;5082590;28;19912;-60
2023/10/06 15:47:01;;;;;;;;;;;;;;;;;;5084050;28;19974;-60
2023/10/06 15:49:27;;;;;;;;;;;;;;;;;;5083630;28;19916;-60
2023/10/06 15:51:52;;;;;;;;;;;;;;;;;;5081867;28;19978;-60
2023/10/06 15:54:18;;;;;;;;;;;;;;;;;;5084173;28;19911;-62
2023/10/06 15:56:43;;;;;;;;;;;;;;;;;;5083178;28;20309;-60
2023/10/06 15:59:13;;;;;;;;;;;;;;;;;;5081459;28;20380;-61
2023/10/06 16:01:39;;;;;;;;;;;;;;;;;;5082508;28;20297;-61
2023/10/06 16:04:05;;;;;;;;;;;;;;;;;;5082659;28;19995;-60
2023/10/06 16:06:34;;;;;;;;;;;;;;;;;;5081427;28;19927;-58
2023/10/06 16:09:00;;;;;;;;;;;;;;;;;;5086645;28;20003;-60
2023/10/06 16:11:25;;;;;;;;;;;;;;;;;;5091231;28;19915;-60
2023/10/06 16:13:51;;;;;;;;;;;;;;;;;;5093499;28;20007;-59
2023/10/06 16:16:17;;;;;;;;;;;;;;;;;;5093308;28;19927;-61
2023/10/06 16:18:44;;;;;;;;;;;;;;;;;;5092165;28;19912;-62
2023/10/06 16:21:11;;;;;;;;;;;;;;;;;;5110961;28;19912;-61
2023/10/06 16:23:37;;;;;;;;;;;;;;;;;;5113642;28;19960;-59
2023/10/06 16:26:03;;;;;;;;;;;;;;;;;;5113765;28;19916;-58
2023/10/06 16:28:29;;;;;;;;;;;;;;;;;;5098800;28;20412;-58
2023/10/06 16:30:54;;;;;;;;;;;;;;;;;;5075883;28;19914;-63
2023/10/06 16:33:20;;;;;;;;;;;;;;;;;;5081095;28;19924;-61
2023/10/06 16:35:45;;;;;;;;;;;;;;;;;;5073233;28;19920;-61
2023/10/06 16:38:10;;;;;;;;;;;;;;;;;;5038628;28;19939;-59
2023/10/06 16:40:37;;;;;;;;;;;;;;;;;;5077893;28;20006;-60
2023/10/06 16:43:08;;;;;;;;;;;;;;;;;;5047192;28;19928;-59
2023/10/06 16:45:33;;;;;;;;;;;;;;;;;;5082375;28;19958;-61
2023/10/06 16:47:58;;;;;;;;;;;;;;;;;;5082253;28;19970;-61
2023/10/06 16:50:25;;;;;;;;;;;;;;;;;;5081432;28;19946;-60
2023/10/06 16:52:50;;;;;;;;;;;;;;;;;;5082623;28;19931;-59
2023/10/06 16:55:18;;;;;;;;;;;;;;;;;;5083215;28;20023;-61